createdAt,value
2022-12-06T00:01:28.947Z,16.48
2022-12-06T00:03:59.292Z,16.65
2022-12-06T00:06:28.335Z,17.38
2022-12-06T00:08:56.426Z,17.40
2022-12-06T00:11:26.110Z,17.65
2022-12-06T00:13:54.778Z,17.80
2022-12-06T00:16:21.841Z,17.02
2022-12-06T00:18:49.759Z,18.83
2022-12-06T00:21:17.802Z,17.48
2022-12-06T00:24:10.238Z,17.67
2022-12-06T00:26:39.310Z,17.27
2022-12-06T00:29:07.256Z,17.58
2022-12-06T00:31:35.625Z,16.90
2022-12-06T00:34:02.857Z,18.55
2022-12-06T00:36:32.871Z,17.45
2022-12-06T00:39:01.347Z,17.50
2022-12-06T00:41:28.327Z,17.80
2022-12-06T00:43:55.186Z,18.00
2022-12-06T00:46:25.111Z,17.83
2022-12-06T00:48:53.484Z,17.13
2022-12-06T00:51:21.408Z,18.10
2022-12-06T00:53:48.727Z,18.00
2022-12-06T00:56:16.985Z,17.48
2022-12-06T00:58:44.201Z,16.60
2022-12-06T01:01:11.273Z,17.00
2022-12-06T01:03:38.665Z,16.75
2022-12-06T01:06:07.875Z,16.95
2022-12-06T01:08:35.627Z,16.80
2022-12-06T01:11:02.809Z,16.52
2022-12-06T01:13:29.725Z,16.38
2022-12-06T01:15:57.383Z,17.17
2022-12-06T01:18:24.125Z,16.77
2022-12-06T01:20:50.659Z,16.88
2022-12-06T01:23:17.186Z,17.40
2022-12-06T01:25:51.624Z,17.02
2022-12-06T01:28:18.603Z,17.27
2022-12-06T01:30:45.285Z,17.20
2022-12-06T01:33:11.818Z,17.55
2022-12-06T01:35:42.364Z,17.50
2022-12-06T01:38:10.186Z,18.15
2022-12-06T01:40:41.960Z,17.52
2022-12-06T01:43:35.514Z,17.17
2022-12-06T01:46:26.292Z,17.02
2022-12-06T01:49:00.775Z,17.45
2022-12-06T01:51:27.824Z,17.90
2022-12-06T01:53:55.126Z,17.40
2022-12-06T01:56:22.629Z,15.60
2022-12-06T01:58:52.230Z,17.65
2022-12-06T02:01:18.913Z,19.02
2022-12-06T02:03:48.115Z,18.08
2022-12-06T02:06:16.404Z,18.17
2022-12-06T02:08:44.388Z,19.92
2022-12-06T02:11:10.959Z,20.88
2022-12-06T02:13:38.118Z,18.33
2022-12-06T02:16:16.328Z,16.70
2022-12-06T02:18:52.774Z,18.15
2022-12-06T02:21:22.068Z,17.05
2022-12-06T02:24:04.320Z,18.15
2022-12-06T02:26:30.794Z,16.45
2022-12-06T02:29:16.415Z,18.02
2022-12-06T02:31:51.833Z,16.77
2022-12-06T02:34:22.996Z,17.05
2022-12-06T02:36:59.376Z,17.33
2022-12-06T02:39:42.707Z,18.65
2022-12-06T02:42:17.155Z,18.20
2022-12-06T02:44:48.286Z,16.90
2022-12-06T02:47:16.629Z,17.70
2022-12-06T02:49:47.384Z,18.30
2022-12-06T02:52:15.011Z,17.60
2022-12-06T02:54:45.474Z,16.83
2022-12-06T02:57:11.984Z,17.85
2022-12-06T02:59:38.512Z,18.20
2022-12-06T03:02:09.697Z,17.10
2022-12-06T03:04:49.506Z,18.50
2022-12-06T03:07:42.980Z,17.58
2022-12-06T03:10:38.090Z,17.38
2022-12-06T03:13:04.559Z,17.00
2022-12-06T03:15:34.275Z,17.05
2022-12-06T03:18:21.813Z,15.68
2022-12-06T03:20:56.336Z,17.17
2022-12-06T03:23:30.551Z,16.33
2022-12-06T03:25:59.893Z,17.08
2022-12-06T03:28:28.433Z,16.33
2022-12-06T03:30:59.707Z,16.90
2022-12-06T03:33:27.985Z,16.23
2022-12-06T03:35:57.078Z,16.70
2022-12-06T03:38:36.720Z,16.73
2022-12-06T03:41:05.967Z,15.80
2022-12-06T03:43:33.616Z,17.35
2022-12-06T03:46:16.784Z,17.15
2022-12-06T03:48:49.018Z,16.97
2022-12-06T03:51:23.058Z,17.33
2022-12-06T03:53:52.456Z,17.20
2022-12-06T03:56:20.051Z,17.05
2022-12-06T03:58:46.753Z,16.38
2022-12-06T04:01:13.315Z,16.90
2022-12-06T04:03:39.951Z,17.73
2022-12-06T04:06:07.793Z,16.70
2022-12-06T04:08:35.062Z,18.55
2022-12-06T04:11:01.813Z,17.98
2022-12-06T04:13:28.576Z,17.80
2022-12-06T04:15:57.351Z,19.05
2022-12-06T04:18:24.689Z,17.70
2022-12-06T04:21:23.256Z,17.13
2022-12-06T04:23:51.991Z,18.90
2022-12-06T04:26:21.972Z,18.10
2022-12-06T04:29:08.234Z,16.90
2022-12-06T04:31:54.037Z,18.35
2022-12-06T04:34:39.210Z,18.52
2022-12-06T04:37:25.263Z,18.23
2022-12-06T04:39:51.846Z,18.80
2022-12-06T04:42:37.197Z,17.60
2022-12-06T04:45:05.502Z,18.02
2022-12-06T04:47:32.131Z,19.20
2022-12-06T04:49:58.966Z,18.73
2022-12-06T04:52:28.173Z,19.25
2022-12-06T04:54:57.840Z,17.05
2022-12-06T04:57:24.402Z,19.55
2022-12-06T04:59:51.534Z,19.45
2022-12-06T05:02:18.098Z,16.92
2022-12-06T05:04:44.691Z,18.45
2022-12-06T05:07:11.711Z,19.00
2022-12-06T05:09:38.651Z,18.63
2022-12-06T05:12:05.482Z,19.55
2022-12-06T05:14:31.993Z,19.63
2022-12-06T05:16:58.976Z,18.70
2022-12-06T05:19:25.688Z,19.80
2022-12-06T05:21:52.249Z,21.08
2022-12-06T05:24:18.750Z,20.15
2022-12-06T05:26:45.282Z,20.45
2022-12-06T05:29:12.088Z,21.90
2022-12-06T05:31:38.625Z,21.25
2022-12-06T05:34:05.154Z,20.65
2022-12-06T05:36:31.688Z,21.48
2022-12-06T05:38:58.349Z,21.45
2022-12-06T05:41:25.549Z,20.90
2022-12-06T05:43:52.307Z,19.70
2022-12-06T05:46:18.984Z,21.05
2022-12-06T05:48:45.869Z,21.38
2022-12-06T05:51:12.634Z,20.73
2022-12-06T05:53:40.831Z,22.05
2022-12-06T05:56:11.167Z,22.50
2022-12-06T05:58:38.333Z,22.33
2022-12-06T06:01:06.786Z,21.80
2022-12-06T06:03:33.690Z,22.23
2022-12-06T06:06:01.239Z,21.85
2022-12-06T06:08:28.784Z,22.38
2022-12-06T06:10:56.083Z,23.10
2022-12-06T06:13:22.989Z,22.27
2022-12-06T06:15:50.045Z,23.10
2022-12-06T06:18:17.833Z,21.90
2022-12-06T06:20:57.496Z,22.52
2022-12-06T06:23:24.482Z,23.08
2022-12-06T06:25:51.337Z,22.15
2022-12-06T06:28:18.417Z,22.15
2022-12-06T06:30:45.751Z,26.80
2022-12-06T06:33:12.574Z,28.15
2022-12-06T06:35:39.798Z,30.08
2022-12-06T06:38:06.514Z,32.33
2022-12-06T06:40:33.389Z,34.00
2022-12-06T06:43:18.204Z,28.15
2022-12-06T06:45:51.004Z,24.70
2022-12-06T06:48:17.545Z,23.42
2022-12-06T06:50:44.100Z,24.33
2022-12-06T06:53:10.721Z,26.50
2022-12-06T06:55:37.601Z,25.67
2022-12-06T06:58:05.527Z,26.10
2022-12-06T07:00:33.204Z,24.48
2022-12-06T07:02:59.882Z,23.95
2022-12-06T07:05:27.236Z,22.88
2022-12-06T07:07:54.434Z,24.10
2022-12-06T07:10:21.029Z,25.58
2022-12-06T07:12:47.518Z,23.80
2022-12-06T07:15:14.379Z,23.85
2022-12-06T07:17:40.881Z,22.10
2022-12-06T07:20:08.045Z,22.90
2022-12-06T07:22:34.596Z,23.90
2022-12-06T07:25:01.112Z,22.88
2022-12-06T07:27:27.634Z,23.60
2022-12-06T07:29:54.172Z,23.48
2022-12-06T07:32:20.714Z,21.73
2022-12-06T07:34:47.213Z,21.88
2022-12-06T07:37:15.074Z,21.10
2022-12-06T07:39:43.169Z,22.48
2022-12-06T07:42:28.718Z,21.92
2022-12-06T07:45:05.622Z,20.92
2022-12-06T07:47:34.290Z,21.15
2022-12-06T07:50:01.138Z,22.88
2022-12-06T07:52:32.687Z,22.23
2022-12-06T07:54:59.493Z,21.25
2022-12-06T07:57:26.508Z,22.10
2022-12-06T07:59:53.000Z,21.13
2022-12-06T08:02:22.288Z,21.02
2022-12-06T08:04:49.081Z,21.23
2022-12-06T08:07:15.916Z,21.20
2022-12-06T08:09:42.507Z,21.92
2022-12-06T08:12:09.537Z,20.98
2022-12-06T08:14:36.473Z,22.85
2022-12-06T08:17:05.296Z,21.40
2022-12-06T08:19:32.311Z,20.77
2022-12-06T08:21:59.029Z,21.17
2022-12-06T08:24:25.673Z,21.08
2022-12-06T08:26:52.974Z,21.63
2022-12-06T08:29:19.747Z,21.20
2022-12-06T08:31:46.929Z,21.67
2022-12-06T08:34:14.044Z,21.05
2022-12-06T08:36:40.571Z,21.33
2022-12-06T08:39:08.344Z,20.25
2022-12-06T08:41:53.546Z,20.90
2022-12-06T08:44:20.659Z,19.77
2022-12-06T08:46:47.877Z,20.80
2022-12-06T08:49:16.039Z,19.83
2022-12-06T08:51:43.488Z,19.45
2022-12-06T08:54:13.803Z,20.50
2022-12-06T08:56:40.429Z,20.05
2022-12-06T08:59:07.208Z,20.15
2022-12-06T09:01:37.989Z,20.15
2022-12-06T09:04:07.034Z,20.08
2022-12-06T09:06:33.732Z,20.60
2022-12-06T09:09:00.291Z,20.83
2022-12-06T09:11:27.174Z,20.40
2022-12-06T09:13:53.680Z,20.83
2022-12-06T09:16:22.828Z,21.88
2022-12-06T09:18:51.281Z,20.63
2022-12-06T09:21:23.549Z,20.67
2022-12-06T09:23:50.679Z,20.40
2022-12-06T09:26:17.472Z,20.60
2022-12-06T09:28:51.277Z,19.77
2022-12-06T09:31:18.972Z,18.95
2022-12-06T09:33:46.877Z,18.83
2022-12-06T09:36:27.887Z,20.42
2022-12-06T09:39:02.100Z,19.63
2022-12-06T09:42:00.874Z,18.33
2022-12-06T09:44:36.534Z,17.60
2022-12-06T09:47:18.057Z,18.10
2022-12-06T09:50:23.710Z,17.75
2022-12-06T09:53:20.985Z,17.65
2022-12-06T09:56:25.492Z,16.73
2022-12-06T10:01:37.138Z,17.33
2022-12-06T10:04:17.570Z,16.98
2022-12-06T10:07:11.631Z,17.67
2022-12-06T10:10:03.247Z,18.27
2022-12-06T10:12:48.633Z,17.55
2022-12-06T10:15:33.313Z,16.85
2022-12-06T10:18:30.112Z,17.75
2022-12-06T10:21:05.941Z,16.98
2022-12-06T10:24:01.456Z,16.92
2022-12-06T10:26:39.099Z,16.92
2022-12-06T10:29:14.666Z,17.80
2022-12-06T10:31:56.417Z,16.77
2022-12-06T10:34:33.582Z,17.00
2022-12-06T10:37:16.548Z,16.35
2022-12-06T10:40:00.879Z,16.25
2022-12-06T10:42:27.452Z,15.60
2022-12-06T10:44:59.609Z,15.35
2022-12-06T10:47:43.859Z,16.08
2022-12-06T10:50:25.469Z,16.27
2022-12-06T10:53:02.049Z,16.42
2022-12-06T10:55:34.696Z,15.50
2022-12-06T10:58:38.289Z,15.00
2022-12-06T11:01:20.106Z,14.10
2022-12-06T11:04:34.958Z,12.90
2022-12-06T11:09:51.154Z,13.45
2022-12-06T11:12:31.199Z,13.52
2022-12-06T11:15:20.254Z,13.63
2022-12-06T11:17:52.120Z,14.30
2022-12-06T11:20:21.731Z,13.93
2022-12-06T11:23:17.780Z,13.07
2022-12-06T11:26:06.454Z,14.52
2022-12-06T11:28:43.721Z,14.30
2022-12-06T11:31:44.018Z,14.23
2022-12-06T11:34:18.764Z,14.13
2022-12-06T11:36:47.116Z,14.10
2022-12-06T11:39:14.758Z,13.90
2022-12-06T11:41:45.654Z,13.45
2022-12-06T11:44:18.515Z,13.45
2022-12-06T11:46:48.433Z,13.38
2022-12-06T11:49:20.387Z,12.70
2022-12-06T11:51:47.214Z,15.00
2022-12-06T11:54:24.306Z,13.90
2022-12-06T11:56:50.871Z,12.32
2022-12-06T11:59:24.876Z,12.02
2022-12-06T12:01:54.456Z,12.00
2022-12-06T12:04:41.834Z,11.90
2022-12-06T12:07:26.862Z,12.10
2022-12-06T12:09:58.407Z,13.30
2022-12-06T12:12:48.265Z,12.15
2022-12-06T12:15:18.509Z,11.20
2022-12-06T12:17:52.530Z,11.85
2022-12-06T12:20:24.109Z,12.73
2022-12-06T12:23:03.987Z,13.38
2022-12-06T12:25:33.743Z,15.20
2022-12-06T12:28:02.343Z,13.85
2022-12-06T12:30:37.274Z,14.25
2022-12-06T12:33:06.554Z,13.45
2022-12-06T12:35:34.307Z,13.00
2022-12-06T12:38:05.278Z,14.13
2022-12-06T12:40:39.253Z,12.73
2022-12-06T12:43:11.594Z,13.00
2022-12-06T12:45:40.978Z,11.65
2022-12-06T12:48:27.020Z,11.60
2022-12-06T12:50:59.344Z,11.25
2022-12-06T12:53:40.406Z,10.65
2022-12-06T12:56:18.154Z,10.15
2022-12-06T12:58:47.660Z,10.55
2022-12-06T13:01:37.488Z,10.93
2022-12-06T13:04:26.258Z,11.18
2022-12-06T13:07:18.280Z,11.30
2022-12-06T13:09:58.818Z,9.93
2022-12-06T13:18:48.407Z,9.05
2022-12-06T13:21:53.214Z,9.43
2022-12-06T13:25:17.052Z,9.70
2022-12-06T13:27:56.368Z,9.18
2022-12-06T13:30:33.889Z,9.25
2022-12-06T13:33:27.957Z,9.38
2022-12-06T13:36:58.125Z,9.45
2022-12-06T13:43:39.933Z,8.68
2022-12-06T13:46:36.349Z,8.48
2022-12-06T13:49:48.918Z,8.90
2022-12-06T13:55:28.449Z,8.20
2022-12-06T13:57:55.002Z,8.77
2022-12-06T14:00:30.778Z,8.50
2022-12-06T14:03:17.670Z,8.50
2022-12-06T14:08:42.238Z,8.85
2022-12-06T14:11:14.851Z,8.98
2022-12-06T14:13:43.194Z,8.27
2022-12-06T14:16:18.416Z,8.73
2022-12-06T14:18:45.004Z,8.45
2022-12-06T14:21:36.421Z,12.38
2022-12-06T14:24:04.428Z,13.05
2022-12-06T14:26:33.821Z,12.25
2022-12-06T14:29:01.496Z,10.38
2022-12-06T14:31:34.220Z,9.95
2022-12-06T14:34:00.807Z,10.67
2022-12-06T14:36:40.529Z,10.40
2022-12-06T14:39:15.410Z,10.98
2022-12-06T14:42:10.496Z,10.70
2022-12-06T14:44:37.084Z,11.20
2022-12-06T14:47:04.392Z,11.88
2022-12-06T14:49:54.148Z,12.35
2022-12-06T14:52:29.360Z,13.20
2022-12-06T14:55:17.411Z,12.27
2022-12-06T14:57:47.141Z,12.95
2022-12-06T15:00:25.998Z,13.77
2022-12-06T15:03:10.269Z,13.52
2022-12-06T15:05:51.880Z,13.70
2022-12-06T15:08:30.265Z,14.70
2022-12-06T15:11:13.560Z,16.33
2022-12-06T15:13:40.273Z,17.42
2022-12-06T15:16:09.788Z,14.70
2022-12-06T15:18:40.547Z,15.50
2022-12-06T15:21:15.420Z,16.08
2022-12-06T15:23:54.968Z,16.10
2022-12-06T15:26:23.227Z,15.55
2022-12-06T15:28:51.144Z,16.67
2022-12-06T15:31:21.055Z,15.70
2022-12-06T15:33:48.348Z,15.38
2022-12-06T15:36:18.137Z,15.52
2022-12-06T15:38:45.191Z,16.45
2022-12-06T15:41:20.768Z,17.30
2022-12-06T15:43:48.532Z,15.85
2022-12-06T15:46:18.845Z,15.80
2022-12-06T15:48:45.780Z,15.70
2022-12-06T15:51:20.524Z,17.02
2022-12-06T15:53:50.013Z,14.57
2022-12-06T15:56:22.589Z,15.63
2022-12-06T15:58:50.793Z,15.10
2022-12-06T16:01:21.412Z,15.68
2022-12-06T16:03:49.240Z,16.13
2022-12-06T16:06:17.276Z,16.25
2022-12-06T16:08:44.625Z,14.73
2022-12-06T16:11:17.376Z,15.70
2022-12-06T16:13:44.403Z,16.23
2022-12-06T16:16:11.508Z,16.52
2022-12-06T16:18:38.312Z,17.77
2022-12-06T16:21:05.931Z,18.65
2022-12-06T16:26:39.397Z,17.98
2022-12-06T16:29:07.710Z,18.33
2022-12-06T16:31:38.483Z,27.88
2022-12-06T16:34:05.615Z,25.02
2022-12-06T16:36:32.436Z,26.00
2022-12-06T16:39:02.192Z,18.65
2022-12-06T16:41:37.884Z,19.50
2022-12-06T16:44:04.545Z,21.35
2022-12-06T16:46:33.476Z,26.80
2022-12-06T16:49:16.128Z,39.78
2022-12-06T16:51:48.519Z,25.27
2022-12-06T16:54:16.156Z,23.25
2022-12-06T16:56:43.382Z,21.67
2022-12-06T16:59:18.739Z,21.55
2022-12-06T17:01:50.696Z,21.90
2022-12-06T17:04:17.688Z,19.02
2022-12-06T17:06:44.351Z,20.02
2022-12-06T17:09:11.723Z,19.55
2022-12-06T17:11:57.941Z,25.38
2022-12-06T17:14:27.622Z,23.00
2022-12-06T17:16:55.112Z,20.52
2022-12-06T17:19:24.001Z,20.23
2022-12-06T17:21:52.436Z,16.95
2022-12-06T17:24:21.200Z,21.90
2022-12-06T17:26:48.066Z,27.05
2022-12-06T17:29:14.730Z,19.08
2022-12-06T17:31:42.717Z,18.83
2022-12-06T17:34:12.497Z,17.00
2022-12-06T17:36:39.235Z,18.58
2022-12-06T17:39:07.565Z,20.33
2022-12-06T17:41:53.122Z,16.88
2022-12-06T17:44:20.582Z,17.73
2022-12-06T17:46:47.421Z,18.67
2022-12-06T17:49:16.534Z,16.90
2022-12-06T17:51:43.051Z,17.08
2022-12-06T17:54:09.964Z,20.70
2022-12-06T17:56:42.093Z,19.25
2022-12-06T17:59:11.460Z,20.17
2022-12-06T18:02:12.897Z,21.35
2022-12-06T18:04:26.820Z,19.60
2022-12-06T18:06:53.976Z,18.75
2022-12-06T18:09:20.580Z,24.52
2022-12-06T18:11:48.925Z,20.10
2022-12-06T18:14:16.468Z,20.92
2022-12-06T18:16:45.840Z,19.65
2022-12-06T18:19:18.456Z,19.88
2022-12-06T18:21:45.641Z,20.25
2022-12-06T18:24:24.536Z,18.42
2022-12-06T18:26:52.287Z,16.95
2022-12-06T18:29:21.614Z,15.68
2022-12-06T18:31:48.333Z,15.30
2022-12-06T18:34:15.267Z,16.77
2022-12-06T18:36:42.147Z,14.77
2022-12-06T18:39:14.995Z,16.98
2022-12-06T18:41:43.037Z,16.83
2022-12-06T18:44:11.093Z,15.68
2022-12-06T18:46:38.928Z,16.00
2022-12-06T18:49:06.560Z,16.10
2022-12-06T18:51:35.212Z,16.80
2022-12-06T18:54:04.492Z,18.58
2022-12-06T18:56:32.395Z,20.80
2022-12-06T18:59:00.270Z,15.27
2022-12-06T19:01:36.183Z,17.50
2022-12-06T19:04:04.485Z,18.23
2022-12-06T19:06:33.366Z,27.23
2022-12-06T19:09:03.412Z,20.90
2022-12-06T19:11:30.194Z,22.80
2022-12-06T19:13:58.459Z,19.98
2022-12-06T19:16:32.966Z,19.85
2022-12-06T19:19:01.215Z,15.93
2022-12-06T19:21:28.000Z,19.13
2022-12-06T19:23:56.007Z,16.83
2022-12-06T19:26:23.809Z,19.88
2022-12-06T19:28:50.716Z,21.17
2022-12-06T19:31:17.961Z,19.10
2022-12-06T19:33:46.322Z,19.17
2022-12-06T19:36:18.855Z,19.48
2022-12-06T19:38:45.896Z,17.52
2022-12-06T19:41:17.885Z,14.82
2022-12-06T19:44:03.329Z,13.85
2022-12-06T19:46:30.870Z,14.05
2022-12-06T19:49:00.244Z,13.95
2022-12-06T19:51:28.942Z,18.02
2022-12-06T19:53:58.371Z,16.48
2022-12-06T19:56:25.991Z,18.25
2022-12-06T19:58:54.720Z,23.33
2022-12-06T20:01:30.384Z,15.98
2022-12-06T20:03:57.320Z,15.00
2022-12-06T20:06:26.801Z,18.15
2022-12-06T20:08:55.663Z,21.73
2022-12-06T20:11:42.340Z,17.42
2022-12-06T20:14:12.491Z,17.67
2022-12-06T20:16:39.365Z,15.65
2022-12-06T20:19:07.153Z,14.48
2022-12-06T20:21:34.450Z,13.80
2022-12-06T20:24:01.698Z,12.95
2022-12-06T20:26:29.922Z,13.02
2022-12-06T20:28:56.728Z,13.38
2022-12-06T20:31:25.938Z,13.13
2022-12-06T20:33:55.724Z,13.55
2022-12-06T20:36:23.460Z,13.82
2022-12-06T20:38:52.421Z,13.00
2022-12-06T20:41:21.086Z,11.98
2022-12-06T20:43:51.126Z,11.63
2022-12-06T20:46:23.468Z,11.48
2022-12-06T20:48:50.773Z,11.52
2022-12-06T20:51:20.144Z,11.73
2022-12-06T20:53:47.592Z,12.05
2022-12-06T20:56:24.868Z,11.18
2022-12-06T20:58:54.873Z,12.40
2022-12-06T21:01:29.608Z,11.77
2022-12-06T21:03:56.676Z,11.82
2022-12-06T21:06:24.424Z,11.27
2022-12-06T21:08:52.323Z,11.60
2022-12-06T21:11:22.939Z,11.30
2022-12-06T21:13:52.993Z,11.75
2022-12-06T21:16:23.058Z,11.32
2022-12-06T21:18:55.279Z,11.38
2022-12-06T21:21:29.250Z,12.40
2022-12-06T21:23:58.964Z,12.40
2022-12-06T21:26:25.651Z,11.63
2022-12-06T21:28:53.805Z,11.50
2022-12-06T21:31:21.301Z,12.55
2022-12-06T21:33:48.205Z,11.50
2022-12-06T21:36:17.670Z,11.35
2022-12-06T21:38:44.256Z,12.40
2022-12-06T21:41:13.198Z,11.98
2022-12-06T21:43:40.124Z,10.65
2022-12-06T21:46:10.722Z,13.25
2022-12-06T21:48:37.396Z,11.40
2022-12-06T21:51:06.914Z,10.65
2022-12-06T21:53:34.225Z,11.50
2022-12-06T21:56:07.394Z,10.80
2022-12-06T21:58:35.162Z,10.40
2022-12-06T22:01:10.823Z,12.18
2022-12-06T22:03:37.458Z,13.23
2022-12-06T22:06:10.786Z,12.38
2022-12-06T22:08:39.320Z,12.50
2022-12-06T22:11:11.383Z,11.80
2022-12-06T22:13:40.758Z,12.30
2022-12-06T22:16:09.587Z,11.43
2022-12-06T22:18:44.022Z,13.25
2022-12-06T22:21:18.782Z,12.30
2022-12-06T22:23:46.299Z,13.00
2022-12-06T22:26:16.137Z,12.98
2022-12-06T22:28:43.168Z,11.60
2022-12-06T22:31:21.896Z,12.13
2022-12-06T22:33:52.452Z,11.68
2022-12-06T22:36:23.520Z,12.20
2022-12-06T22:38:58.652Z,12.05
2022-12-06T22:41:26.990Z,11.73
2022-12-06T22:43:59.461Z,11.75
2022-12-06T22:46:30.724Z,12.77
2022-12-06T22:48:58.968Z,12.25
2022-12-06T22:51:29.652Z,12.25
2022-12-06T22:54:10.340Z,11.60
2022-12-06T22:56:47.117Z,12.10
2022-12-06T22:59:15.879Z,12.20
2022-12-06T23:01:42.662Z,11.27
2022-12-06T23:04:12.442Z,11.13
2022-12-06T23:06:39.680Z,11.82
2022-12-06T23:09:07.859Z,12.48
2022-12-06T23:11:36.304Z,11.68
2022-12-06T23:14:04.282Z,11.13
2022-12-06T23:16:32.158Z,10.18
2022-12-06T23:19:01.029Z,10.93
2022-12-06T23:21:30.367Z,11.50
2022-12-06T23:24:04.021Z,11.25
2022-12-06T23:28:58.870Z,10.75
2022-12-06T23:31:28.707Z,12.07
2022-12-06T23:34:22.058Z,10.93
2022-12-06T23:36:49.722Z,11.30
2022-12-06T23:39:16.667Z,11.05
2022-12-06T23:41:43.930Z,10.77
2022-12-06T23:44:12.582Z,11.60
2022-12-06T23:46:40.560Z,10.82
2022-12-06T23:49:08.039Z,11.15
2022-12-06T23:51:37.325Z,10.80
2022-12-06T23:54:06.209Z,11.48
2022-12-06T23:56:35.140Z,11.70
2022-12-06T23:59:03.564Z,11.10
